Time;durP1;ratioP1;P1;durP2;ratioP2;P2;SDS_P1;SDS_P2;PMS_P1;PMS_P2;Temp;Humidity;BMP_temperature;BMP_pressure;BME280_temperature;BME280_humidity;BME280_pressure;Samples;Min_cycle;Max_cycle;Signal;HPM_P1;HPM_P2
2022/05/09 00:00:22;;;;;;;20.85;3.33;;;;;;;7.55;100.00;102947.19;4841455;29;20033;-81
2022/05/09 00:02:51;;;;;;;21.35;4.35;;;;;;;7.52;100.00;102947.03;4858409;29;20045;-81
2022/05/09 00:05:27;;;;;;;17.15;4.57;;;;;;;7.49;100.00;102958.28;4870475;29;20054;-81
2022/05/09 00:07:55;;;;;;;22.88;4.00;;;;;;;7.49;100.00;102953.03;4862010;29;20045;-81
2022/05/09 00:10:26;;;;;;;9.50;3.40;;;;;;;7.47;100.00;102948.53;4857847;29;20064;-81
2022/05/09 00:12:55;;;;;;;;;;;;;;;7.42;100.00;102941.31;4862012;29;20057;-81
2022/05/09 00:15:29;;;;;;;12.10;3.97;;;;;;;7.38;100.00;102944.63;4841005;29;20425;-81
2022/05/09 00:17:58;;;;;;;16.98;4.15;;;;;;;7.35;100.00;102952.34;4846850;29;20037;-81
2022/05/09 00:20:26;;;;;;;12.48;3.65;;;;;;;7.32;100.00;102940.81;4860695;29;20053;-81
2022/05/09 00:22:55;;;;;;;12.10;3.50;;;;;;;7.31;100.00;102941.59;4846017;29;20049;-81
2022/05/09 00:25:26;;;;;;;12.50;3.40;;;;;;;7.28;100.00;102937.13;4858508;29;20053;-81
2022/05/09 00:27:55;;;;;;;13.90;3.97;;;;;;;7.26;100.00;102935.22;4861991;29;20403;-81
2022/05/09 00:30:23;;;;;;;16.30;3.28;;;;;;;7.23;100.00;102935.97;4845138;29;20053;-80
2022/05/09 00:32:52;;;;;;;11.75;3.28;;;;;;;7.20;100.00;102938.44;4857154;29;20050;-81
2022/05/09 00:35:21;;;;;;;11.70;2.95;;;;;;;7.18;100.00;102934.84;4870977;29;20045;-80
2022/05/09 00:37:50;;;;;;;16.00;3.42;;;;;;;7.16;100.00;102932.13;4862022;29;20041;-80
2022/05/09 00:40:18;;;;;;;13.50;3.33;;;;;;;7.16;100.00;102933.88;4841351;29;20059;-81
2022/05/09 00:42:49;;;;;;;15.95;3.95;;;;;;;7.14;100.00;102932.88;4859623;29;20260;-81
2022/05/09 00:45:20;;;;;;;16.50;4.38;;;;;;;7.10;100.00;102921.34;4864388;29;20423;-82
2022/05/09 00:47:50;;;;;;;16.95;4.25;;;;;;;7.08;100.00;102933.47;4855502;29;20422;-82
2022/05/09 00:50:26;;;;;;;18.60;5.03;;;;;;;7.05;100.00;102938.59;4858459;29;20049;-80
2022/05/09 00:52:58;;;;;;;16.25;4.45;;;;;;;7.02;100.00;102928.81;4861448;29;20045;-80
2022/05/09 00:55:46;;;;;;;12.85;3.95;;;;;;;7.00;100.00;102930.47;4841239;29;20064;-82
2022/05/09 00:58:24;;;;;;;14.20;4.10;;;;;;;6.99;100.00;102930.38;4876075;29;20057;-82
2022/05/09 01:00:54;;;;;;;14.15;4.72;;;;;;;6.99;100.00;102925.16;4860793;29;20059;-82
2022/05/09 01:03:36;;;;;;;18.02;4.22;;;;;;;6.96;100.00;102925.00;4837754;29;20395;-80
2022/05/09 01:06:06;;;;;;;15.40;4.43;;;;;;;6.95;100.00;102928.44;4877098;29;20041;-80
2022/05/09 01:08:35;;;;;;;17.33;5.03;;;;;;;6.94;100.00;102927.53;4856989;29;20647;-80
2022/05/09 01:11:21;;;;;;;13.48;4.43;;;;;;;6.91;100.00;102927.38;4861123;29;20139;-81
2022/05/09 01:14:01;;;;;;;18.33;4.93;;;;;;;6.89;100.00;102936.88;4860026;29;20064;-81
2022/05/09 01:16:31;;;;;;;17.95;4.43;;;;;;;6.88;100.00;102932.47;4839185;29;20056;-81
2022/05/09 01:19:11;;;;;;;14.52;5.13;;;;;;;6.86;100.00;102930.56;4861950;29;20060;-80
2022/05/09 01:21:40;;;;;;;16.77;5.03;;;;;;;6.82;100.00;102926.91;4859019;29;20060;-81
2022/05/09 01:24:19;;;;;;;22.20;4.78;;;;;;;6.80;100.00;102923.28;4859203;29;20056;-80
2022/05/09 01:26:48;;;;;;;13.98;5.45;;;;;;;6.78;100.00;102919.69;4858111;29;20045;-80
2022/05/09 01:29:38;;;;;;;18.00;5.20;;;;;;;6.75;100.00;102922.19;4857004;29;20399;-81
2022/05/09 01:32:12;;;;;;;15.15;4.35;;;;;;;6.72;100.00;102919.38;4860295;29;20384;-81
2022/05/09 01:34:45;;;;;;;10.52;4.03;;;;;;;6.68;100.00;102930.53;4857876;29;20307;-81
2022/05/09 01:37:15;;;;;;;16.38;4.68;;;;;;;6.67;100.00;102919.13;4859209;29;20040;-82
2022/05/09 01:39:44;;;;;;;19.77;5.18;;;;;;;6.63;100.00;102925.03;4874361;29;20366;-81
2022/05/09 01:42:12;;;;;;;12.38;5.35;;;;;;;6.58;100.00;102922.19;4858996;29;20056;-81
2022/05/09 01:44:41;;;;;;;8.75;4.45;;;;;;;6.54;100.00;102919.31;4841141;29;20272;-81
2022/05/09 01:49:56;;;;;;;19.92;5.05;;;;;;;6.49;100.00;102928.66;4844200;29;20045;-81
2022/05/09 01:52:26;;;;;;;10.40;4.05;;;;;;;6.48;100.00;102930.34;4874278;29;20049;-81
2022/05/09 01:54:54;;;;;;;12.80;4.10;;;;;;;6.46;100.00;102925.88;4845325;29;20052;-81
2022/05/09 01:57:26;;;;;;;15.35;4.40;;;;;;;6.43;100.00;102926.63;4857402;29;20041;-82
2022/05/09 01:59:54;;;;;;;15.45;5.22;;;;;;;6.38;100.00;102926.34;4860799;29;20399;-81
2022/05/09 02:02:23;;;;;;;10.95;4.38;;;;;;;6.36;100.00;102929.72;4840295;29;20435;-81
2022/05/09 02:04:52;;;;;;;14.20;4.40;;;;;;;6.31;100.00;102928.56;4823413;29;20045;-81
2022/05/09 02:07:23;;;;;;;17.13;5.18;;;;;;;6.28;100.00;102931.94;4840216;29;20046;-81
2022/05/09 02:09:51;;;;;;;15.93;4.47;;;;;;;6.22;100.00;102932.50;4859860;29;20458;-81
2022/05/09 02:12:20;;;;;;;15.77;4.30;;;;;;;6.20;100.00;102928.91;4858071;29;20056;-81
2022/05/09 02:14:49;;;;;;;12.77;4.28;;;;;;;6.16;100.00;102923.38;4860930;29;20060;-80
2022/05/09 02:17:18;;;;;;;11.27;4.30;;;;;;;6.13;100.00;102926.75;4862432;29;20049;-81
2022/05/09 02:19:46;;;;;;;13.60;3.78;;;;;;;6.09;100.00;102936.94;4844740;29;20176;-81
2022/05/09 02:22:15;;;;;;;12.52;4.50;;;;;;;6.06;100.00;102929.84;4876426;29;20407;-81
2022/05/09 02:24:45;;;;;;;11.55;4.50;;;;;;;6.04;100.00;102929.75;4879699;29;20546;-81
2022/05/09 02:27:16;;;;;;;11.68;4.20;;;;;;;6.00;100.00;102921.66;4833982;29;20413;-81
2022/05/09 02:29:44;;;;;;;13.27;4.70;;;;;;;5.97;100.00;102927.66;4840359;29;20116;-81
2022/05/09 02:32:15;;;;;;;12.48;4.32;;;;;;;5.96;100.00;102925.81;4846438;29;20079;-81
2022/05/09 02:34:44;;;;;;;13.40;5.25;;;;;;;5.93;100.00;102912.53;4866035;29;20042;-81
2022/05/09 02:37:15;;;;;;;12.18;4.35;;;;;;;5.92;100.00;102907.22;4826812;29;20053;-81
2022/05/09 02:39:45;;;;;;;11.73;4.10;;;;;;;5.90;100.00;102912.38;4859475;29;20064;-81
2022/05/09 02:42:13;;;;;;;10.88;3.88;;;;;;;5.88;100.00;102910.47;4847061;29;20045;-81
2022/05/09 02:44:41;;;;;;;7.60;4.15;;;;;;;5.85;100.00;102916.44;4861704;29;20060;-82
2022/05/09 02:47:10;;;;;;;11.43;3.85;;;;;;;5.82;100.00;102911.03;4861221;29;20041;-81
2022/05/09 02:49:40;;;;;;;13.20;4.20;;;;;;;5.79;100.00;102911.78;4859539;29;20372;-81
2022/05/09 02:52:08;;;;;;;5.97;3.65;;;;;;;5.77;100.00;102917.75;4825819;29;20057;-81
2022/05/09 02:54:37;;;;;;;9.95;4.18;;;;;;;5.75;100.00;102920.28;4844644;29;20045;-81
2022/05/09 02:57:07;;;;;;;11.18;4.40;;;;;;;5.72;100.00;102919.19;4860518;29;20053;-81
2022/05/09 02:59:37;;;;;;;9.27;4.07;;;;;;;5.69;100.00;102911.16;4862688;29;20041;-81
2022/05/09 03:02:08;;;;;;;9.80;3.75;;;;;;;5.65;100.00;102905.78;4860635;29;20063;-81
2022/05/09 03:04:39;;;;;;;7.93;3.95;;;;;;;5.64;100.00;102908.31;4861798;29;20353;-81
2022/05/09 03:07:11;;;;;;;7.35;3.38;;;;;;;5.64;100.00;102905.69;4825863;29;25238;-83
2022/05/09 03:09:43;;;;;;;;;;;;;;;5.59;100.00;102908.03;4875867;29;20060;-80
2022/05/09 03:12:13;;;;;;;7.25;3.08;;;;;;;5.54;100.00;102903.34;4860172;29;19924;-79
2022/05/09 03:14:41;;;;;;;6.43;2.88;;;;;;;5.50;100.00;102901.38;4859401;29;20518;-81
2022/05/09 03:17:10;;;;;;;7.07;2.97;;;;;;;5.47;100.00;102900.38;4860949;29;20053;-80
2022/05/09 03:19:38;;;;;;;11.75;3.33;;;;;;;5.45;100.00;102895.91;4859531;29;20037;-81
2022/05/09 03:22:07;;;;;;;12.10;3.80;;;;;;;5.45;100.00;102888.94;4859900;29;20033;-81
2022/05/09 03:24:36;;;;;;;8.98;3.85;;;;;;;5.45;100.00;102883.72;4844734;29;20041;-81
2022/05/09 03:27:06;;;;;;;15.82;4.07;;;;;;;5.46;100.00;102888.16;4859205;29;20056;-80
2022/05/09 03:29:34;;;;;;;12.07;4.82;;;;;;;5.46;100.00;102880.31;4860173;29;20052;-81
2022/05/09 03:32:03;;;;;;;11.13;4.10;;;;;;;5.46;100.00;102876.75;4874153;29;20706;-80
2022/05/09 03:34:32;;;;;;;10.55;3.92;;;;;;;5.44;100.00;102881.00;4846181;29;20049;-81
2022/05/09 03:37:06;;;;;;;10.25;4.63;;;;;;;5.42;100.00;102877.41;4860436;29;20044;-80
2022/05/09 03:39:35;;;;;;;8.23;4.82;;;;;;;5.41;100.00;102879.13;4844422;29;20119;-81
2022/05/09 03:42:06;;;;;;;12.55;4.05;;;;;;;5.40;100.00;102877.31;4875825;29;20050;-81
2022/05/09 03:44:34;;;;;;;11.10;4.68;;;;;;;5.39;100.00;102879.88;4847450;29;20521;-81
2022/05/09 03:47:03;;;;;;;7.55;4.15;;;;;;;5.39;100.00;102872.03;4860747;29;20048;-81
2022/05/09 03:49:32;;;;;;;11.30;4.90;;;;;;;5.40;100.00;102873.81;4861256;29;20053;-81
2022/05/09 03:52:00;;;;;;;7.68;4.35;;;;;;;5.39;100.00;102870.31;4841526;29;20267;-81
2022/05/09 03:54:29;;;;;;;9.05;5.00;;;;;;;5.38;100.00;102865.88;4862379;29;20056;-81
2022/05/09 03:56:58;;;;;;;11.85;4.68;;;;;;;5.37;100.00;102861.47;4824219;29;20367;-81
2022/05/09 03:59:27;;;;;;;8.43;4.65;;;;;;;5.39;100.00;102852.00;4880678;29;20056;-81
2022/05/09 04:01:58;;;;;;;17.77;4.70;;;;;;;5.40;100.00;102848.56;4858711;29;20061;-81
2022/05/09 04:04:29;;;;;;;13.55;4.90;;;;;;;5.41;100.00;102855.59;4862457;29;20048;-81
2022/05/09 04:06:58;;;;;;;9.20;4.93;;;;;;;5.42;100.00;102849.53;4858379;29;20300;-81
2022/05/09 04:09:26;;;;;;;12.15;4.85;;;;;;;5.45;100.00;102854.94;4830770;29;20406;-81
2022/05/09 04:11:55;;;;;;;8.20;5.07;;;;;;;5.47;100.00;102855.94;4824966;29;20241;-81
2022/05/09 04:17:10;;;;;;;9.77;4.78;;;;;;;5.52;100.00;102842.22;4874830;29;20052;-81
2022/05/09 04:19:39;;;;;;;8.20;4.60;;;;;;;5.53;100.00;102847.53;4858964;29;20045;-81
2022/05/09 04:22:07;;;;;;;9.60;4.80;;;;;;;5.56;100.00;102844.22;4857929;29;20041;-81
2022/05/09 04:24:36;;;;;;;12.45;5.10;;;;;;;5.59;100.00;102836.50;4860454;29;20049;-81
2022/05/09 04:27:05;;;;;;;8.95;4.05;;;;;;;5.63;100.00;102835.88;4840812;29;20392;-81
2022/05/09 04:29:33;;;;;;;9.77;4.90;;;;;;;5.69;100.00;102837.91;4875705;29;20410;-81
2022/05/09 04:32:05;;;;;;;9.90;5.22;;;;;;;5.73;100.00;102834.66;4861149;29;20394;-81
2022/05/09 04:34:34;;;;;;;8.95;4.32;;;;;;;5.78;100.00;102846.28;4877664;29;20052;-81
2022/05/09 04:37:02;;;;;;;11.05;4.93;;;;;;;5.84;100.00;102841.38;4845273;29;20052;-81
2022/05/09 04:39:33;;;;;;;15.43;5.55;;;;;;;5.91;100.00;102832.16;4862005;29;20503;-80
2022/05/09 04:42:01;;;;;;;12.75;6.30;;;;;;;6.11;100.00;102847.25;4860137;29;20045;-80
2022/05/09 04:44:30;;;;;;;19.20;7.72;;;;;;;6.69;100.00;102833.69;4841228;29;20060;-81
2022/05/09 04:46:58;;;;;;;13.70;6.72;;;;;;;7.45;100.00;102832.09;4840410;29;20052;-81
2022/05/09 04:49:27;;;;;;;14.38;6.15;;;;;;;8.27;100.00;102842.03;4861271;29;20049;-81
2022/05/09 04:51:55;;;;;;;13.18;4.97;;;;;;;9.10;100.00;102835.09;4856720;29;20064;-82
2022/05/09 04:54:24;;;;;;;13.48;4.85;;;;;;;9.90;100.00;102828.56;4860278;29;20399;-81
2022/05/09 04:56:52;;;;;;;10.75;5.18;;;;;;;10.64;100.00;102831.28;4857557;29;20056;-83
2022/05/09 04:59:24;;;;;;;10.77;4.50;;;;;;;11.34;100.00;102826.53;4828952;29;20045;-79
2022/05/09 05:01:53;;;;;;;8.15;4.28;;;;;;;11.95;100.00;102816.09;4838552;29;20080;-82
2022/05/09 05:04:24;;;;;;;7.88;3.97;;;;;;;12.49;100.00;102815.81;4865848;29;20053;-82
2022/05/09 05:06:53;;;;;;;10.07;4.47;;;;;;;12.98;100.00;102818.81;4851974;29;20063;-81
2022/05/09 05:09:22;;;;;;;8.02;3.85;;;;;;;13.39;100.00;102818.97;4854058;29;20064;-81
2022/05/09 05:11:50;;;;;;;7.55;3.90;;;;;;;13.78;100.00;102823.34;4859853;29;20045;-81
2022/05/09 05:14:19;;;;;;;9.45;4.40;;;;;;;14.12;100.00;102819.66;4840525;29;20048;-81
2022/05/09 05:17:00;;;;;;;8.45;4.15;;;;;;;14.46;100.00;102825.63;4856467;29;20057;-81
2022/05/09 05:19:35;;;;;;;7.88;3.97;;;;;;;14.78;100.00;102815.59;4877190;29;20545;-81
2022/05/09 05:22:15;;;;;;;8.30;4.43;;;;;;;15.04;100.00;102823.09;4846478;29;20055;-81
2022/05/09 05:24:45;;;;;;;10.68;4.80;;;;;;;15.30;99.81;102818.19;4861099;29;20045;-81
2022/05/09 05:27:14;;;;;;;10.57;4.35;;;;;;;15.58;98.11;102813.28;4861992;29;20068;-81
2022/05/09 05:29:42;;;;;;;9.70;4.07;;;;;;;15.86;96.63;102818.97;4845478;29;20533;-81
2022/05/09 05:32:14;;;;;;;11.43;4.75;;;;;;;16.22;95.66;102815.88;4861040;29;20041;-81
2022/05/09 05:34:44;;;;;;;13.20;5.63;;;;;;;16.57;95.36;102813.56;4838983;29;21097;-81
2022/05/09 05:37:13;;;;;;;13.07;5.35;;;;;;;16.93;93.50;102813.91;4858703;29;20049;-81
2022/05/09 05:39:43;;;;;;;13.02;5.20;;;;;;;17.32;92.53;102813.31;4872733;29;20044;-81
2022/05/09 05:42:14;;;;;;;15.05;5.30;;;;;;;17.69;90.36;102807.28;4861718;29;20052;-81
2022/05/09 05:44:48;;;;;;;12.70;5.80;;;;;;;18.00;88.49;102808.34;4845338;29;20159;-81
2022/05/09 05:47:19;;;;;;;13.50;4.72;;;;;;;18.26;86.61;102805.75;4838543;29;20056;-81
2022/05/09 05:49:47;;;;;;;14.52;5.38;;;;;;;18.49;85.03;102797.78;4883732;29;20419;-82
2022/05/09 05:52:17;;;;;;;16.63;6.47;;;;;;;18.67;83.79;102804.91;4858993;29;20052;-82
2022/05/09 05:54:46;;;;;;;15.23;4.90;;;;;;;18.87;81.13;102804.06;4862406;29;20045;-81
2022/05/09 05:57:27;;;;;;;13.17;4.87;;;;;;;18.96;78.95;102803.16;4867273;29;20059;-81
2022/05/09 06:00:00;;;;;;;15.88;5.28;;;;;;;18.78;77.41;102804.91;4835310;29;20053;-80
2022/05/09 06:02:29;;;;;;;16.02;5.75;;;;;;;18.58;76.89;102796.00;4875006;29;20072;-81
2022/05/09 06:04:58;;;;;;;19.45;6.72;;;;;;;18.22;75.11;102798.66;4819600;29;20076;-82
2022/05/09 06:07:27;;;;;;;19.13;6.65;;;;;;;17.95;76.16;102796.75;4857555;29;20033;-81
2022/05/09 06:09:56;;;;;;;17.42;6.68;;;;;;;17.67;75.70;102795.72;4852798;29;20050;-83
2022/05/09 06:12:25;;;;;;;16.23;7.03;;;;;;;17.30;75.82;102790.22;4854301;29;20052;-82
2022/05/09 06:17:40;;;;;;;20.02;6.45;;;;;;;16.43;78.54;102801.03;4851209;29;20042;-81
2022/05/09 06:20:12;;;;;;;16.35;4.93;;;;;;;16.15;78.95;102795.41;4846376;29;20410;-81
2022/05/09 06:22:41;;;;;;;20.33;5.45;;;;;;;15.85;80.44;102785.31;4863069;29;20053;-81
2022/05/09 06:25:12;;;;;;;;;;;;;;;15.55;82.75;102784.00;4851166;29;20057;-80
2022/05/09 06:27:42;;;;;;;13.35;4.88;;;;;;;15.33;82.62;102786.38;4865770;29;19934;-81
2022/05/09 06:30:12;;;;;;;13.18;4.70;;;;;;;15.13;82.63;102793.16;4832598;29;20041;-82
2022/05/09 06:32:41;;;;;;;14.25;4.63;;;;;;;15.04;82.78;102782.38;4826222;29;20432;-82
2022/05/09 06:35:14;;;;;;;14.75;4.60;;;;;;;14.99;81.93;102779.66;4858925;29;20061;-82
2022/05/09 06:37:43;;;;;;;17.45;4.55;;;;;;;14.87;83.02;102775.03;4864227;29;20553;-82
2022/05/09 06:40:11;;;;;;;14.55;4.53;;;;;;;14.82;83.13;102779.41;4841909;29;20076;-82
2022/05/09 06:42:40;;;;;;;14.07;5.00;;;;;;;14.72;83.32;102783.63;4851067;29;20052;-81
2022/05/09 06:45:10;;;;;;;13.93;4.60;;;;;;;14.63;84.14;102780.84;4845706;29;20543;-81
2022/05/09 06:47:53;;;;;;;14.10;4.72;;;;;;;14.60;85.33;102775.47;4830846;29;20041;-80
2022/05/09 06:50:30;;;;;;;12.07;4.97;;;;;;;14.60;85.13;102773.72;4857533;29;20285;-82
2022/05/09 06:53:02;;;;;;;12.95;4.57;;;;;;;14.55;83.99;102775.34;4861112;29;20064;-81
2022/05/09 06:55:49;;;;;;;11.48;4.55;;;;;;;14.47;84.02;102774.34;4870005;29;20049;-81
2022/05/09 06:58:24;;;;;;;15.05;5.47;;;;;;;14.41;84.74;102780.41;4862934;29;20049;-80
2022/05/09 07:00:53;;;;;;;17.83;5.25;;;;;;;14.40;85.04;102773.34;4874708;29;20049;-80
2022/05/09 07:03:23;;;;;;;14.52;4.90;;;;;;;14.44;85.59;102768.97;4839046;29;20435;-82
2022/05/09 07:05:52;;;;;;;13.82;5.18;;;;;;;14.48;84.90;102769.91;4856106;29;20044;-81
2022/05/09 07:08:23;;;;;;;12.70;4.50;;;;;;;14.52;85.21;102770.00;4859074;29;20075;-81
2022/05/09 07:10:51;;;;;;;12.30;4.38;;;;;;;14.57;84.60;102776.34;4830999;29;20041;-82
2022/05/09 07:13:41;;;;;;;13.50;5.05;;;;;;;14.54;84.57;102767.38;4864369;29;20060;-81
2022/05/09 07:16:11;;;;;;;10.68;4.93;;;;;;;14.51;83.61;102770.84;4839473;29;20053;-81
2022/05/09 07:18:40;;;;;;;13.80;4.97;;;;;;;14.51;85.35;102765.56;4848552;29;20414;-81
2022/05/09 07:21:10;;;;;;;10.88;4.80;;;;;;;14.58;84.20;102771.91;4852780;29;20359;-81
2022/05/09 07:23:39;;;;;;;11.30;4.50;;;;;;;14.65;84.64;102768.50;4877216;29;20048;-81
2022/05/09 07:26:07;;;;;;;13.73;4.40;;;;;;;14.74;84.36;102759.78;4873229;29;20053;-80
2022/05/09 07:28:36;;;;;;;15.55;5.30;;;;;;;14.76;83.95;102769.56;4827313;29;20049;-81
2022/05/09 07:31:05;;;;;;;13.15;4.57;;;;;;;14.86;82.78;102765.31;4851556;29;20040;-81
2022/05/09 07:33:33;;;;;;;14.30;4.28;;;;;;;14.98;82.85;102756.63;4818975;29;20044;-81
2022/05/09 07:36:03;;;;;;;14.25;4.90;;;;;;;15.10;82.67;102755.91;4843784;29;20053;-82
2022/05/09 07:38:31;;;;;;;9.80;4.45;;;;;;;15.23;82.06;102767.63;4858808;29;20056;-82
2022/05/09 07:41:00;;;;;;;11.00;4.40;;;;;;;15.28;81.16;102766.81;4836146;29;20053;-81
2022/05/09 07:43:30;;;;;;;7.55;4.68;;;;;;;15.29;79.09;102760.66;4854383;29;20080;-81
2022/05/09 07:45:59;;;;;;;;;;;;;;;15.30;79.31;102762.41;4854912;29;20044;-81
2022/05/09 07:48:29;;;;;;;12.25;4.47;;;;;;;15.35;80.59;102770.47;4832818;29;20281;-81
2022/05/09 07:50:59;;;;;;;12.75;4.78;;;;;;;15.40;80.65;102759.00;4822160;29;20410;-81
2022/05/09 07:53:31;;;;;;;13.95;5.32;;;;;;;15.46;79.09;102752.88;4861649;29;20041;-80
2022/05/09 07:56:06;;;;;;;9.70;4.35;;;;;;;15.48;77.75;102755.56;4875538;29;20072;-80
2022/05/09 07:58:35;;;;;;;11.95;4.78;;;;;;;15.44;77.63;102751.09;4842324;29;20045;-82
2022/05/09 08:01:04;;;;;;;9.30;4.28;;;;;;;15.46;77.92;102750.22;4838218;29;20061;-80
2022/05/09 08:03:37;;;;;;;9.52;4.20;;;;;;;15.47;77.05;102752.00;4853468;29;20041;-81
2022/05/09 08:06:06;;;;;;;9.98;4.35;;;;;;;15.49;76.46;102750.28;4847827;29;20049;-79
2022/05/09 08:08:40;;;;;;;12.77;4.32;;;;;;;15.49;76.71;102754.69;4859617;29;20049;-80
2022/05/09 08:11:13;;;;;;;12.30;4.47;;;;;;;15.52;77.05;102760.03;4843797;29;20049;-80
2022/05/09 08:13:42;;;;;;;14.05;4.88;;;;;;;15.51;76.35;102756.50;4845421;29;20048;-80
2022/05/09 08:16:12;;;;;;;15.40;4.88;;;;;;;15.53;77.52;102756.53;4846513;29;20160;-80
2022/05/09 08:18:41;;;;;;;9.90;4.35;;;;;;;15.57;76.79;102750.38;4832742;29;20057;-82
2022/05/09 08:21:13;;;;;;;10.40;3.92;;;;;;;15.61;77.87;102754.84;4844387;29;20040;-80
2022/05/09 08:23:46;;;;;;;9.45;4.15;;;;;;;15.71;78.32;102761.19;4858246;29;20056;-81
2022/05/09 08:26:15;;;;;;;11.50;5.00;;;;;;;15.80;77.78;102761.31;4876337;29;20153;-81
2022/05/09 08:28:45;;;;;;;10.00;5.28;;;;;;;15.86;76.63;102761.41;4862697;29;20048;-81
2022/05/09 08:31:18;;;;;;;6.47;4.10;;;;;;;15.89;74.75;102747.25;4868727;29;20064;-81
2022/05/09 08:33:50;;;;;;;11.75;4.25;;;;;;;15.91;75.79;102743.72;4857140;29;20048;-80
2022/05/09 08:39:08;;;;;;;10.88;4.15;;;;;;;15.91;74.53;102741.06;4849776;29;20540;-80
2022/05/09 08:42:13;;;;;;;10.87;4.40;;;;;;;15.96;75.49;102743.78;4846985;29;20073;-80
2022/05/09 08:45:16;;;;;;;9.63;4.30;;;;;;;16.06;75.05;102744.78;4873113;29;20515;-79
2022/05/09 08:47:55;;;;;;;11.02;4.30;;;;;;;16.12;74.28;102739.50;4893366;29;20055;-82
2022/05/09 08:50:51;;;;;;;11.60;4.20;;;;;;;16.21;73.88;102736.06;4837993;29;20037;-82
2022/05/09 08:53:24;;;;;;;9.68;3.78;;;;;;;16.28;72.61;102741.44;4862001;29;20041;-81
2022/05/09 08:55:55;;;;;;;12.38;4.38;;;;;;;16.38;72.48;102737.09;4862554;29;20056;-80
2022/05/09 08:58:41;;;;;;;9.77;4.10;;;;;;;16.48;72.03;102733.66;4863718;29;20376;-81
2022/05/09 09:01:22;;;;;;;8.52;3.53;;;;;;;16.54;69.69;102735.47;4855563;29;20041;-81
2022/05/09 09:03:59;;;;;;;10.85;3.80;;;;;;;16.59;69.02;102733.75;4874458;29;20049;-81
2022/05/09 09:06:31;;;;;;;11.32;4.40;;;;;;;16.69;72.79;102727.63;4849196;29;20056;-81
2022/05/09 09:09:16;;;;;;;14.65;4.43;;;;;;;16.82;72.63;102728.63;4860897;29;20558;-81
2022/05/09 09:12:00;;;;;;;8.50;4.68;;;;;;;16.92;71.74;102729.59;4878534;29;20811;-81
2022/05/09 09:14:46;;;;;;;12.52;4.75;;;;;;;16.97;71.49;102729.63;4879470;29;20052;-81
2022/05/09 09:17:47;;;;;;;10.43;4.30;;;;;;;17.07;72.38;102734.09;4871340;29;20056;-81
2022/05/09 09:20:22;;;;;;;12.82;4.97;;;;;;;17.16;72.65;102723.50;4856989;29;20240;-81
2022/05/09 09:23:04;;;;;;;11.50;5.32;;;;;;;17.26;73.76;102719.16;4842597;29;20048;-81
2022/05/09 09:25:59;;;;;;;12.05;4.95;;;;;;;17.34;73.40;102714.75;4867106;29;20163;-80
2022/05/09 09:28:57;;;;;;;11.35;5.22;;;;;;;17.43;73.27;102713.88;4879001;29;20049;-81
2022/05/09 09:31:34;;;;;;;10.88;4.35;;;;;;;17.52;74.34;102711.25;4837561;29;20557;-80
2022/05/09 09:34:06;;;;;;;17.10;4.78;;;;;;;17.61;74.10;102705.94;4876827;29;20554;-80
2022/05/09 09:36:42;;;;;;;14.48;4.75;;;;;;;17.73;73.85;102710.44;4842946;29;20053;-81
2022/05/09 09:39:15;;;;;;;16.42;5.60;;;;;;;17.83;73.29;102704.25;4854024;29;20064;-81
2022/05/09 09:41:45;;;;;;;13.52;5.22;;;;;;;17.91;71.82;102710.50;4854176;29;20446;-80
2022/05/09 09:44:17;;;;;;;13.23;5.28;;;;;;;18.00;72.29;102706.09;4866064;29;20037;-80
2022/05/09 09:47:00;;;;;;;14.25;5.13;;;;;;;18.10;71.03;102691.88;4850969;29;20188;-81
2022/05/09 09:49:32;;;;;;;21.02;5.25;;;;;;;18.18;72.07;102690.09;4873949;29;20056;-83
2022/05/09 09:52:02;;;;;;;8.07;4.15;;;;;;;18.27;70.52;102692.78;4864786;29;20064;-81
2022/05/09 09:54:34;;;;;;;8.57;4.43;;;;;;;18.35;69.78;102687.44;4869886;29;20053;-81
2022/05/09 09:57:17;;;;;;;13.25;5.25;;;;;;;18.32;66.36;102687.47;4857184;29;20391;-81
2022/05/09 09:59:46;;;;;;;9.45;4.45;;;;;;;18.17;68.73;102677.66;4855165;29;20534;-80
2022/05/09 10:02:24;;;;;;;12.88;4.80;;;;;;;18.15;67.05;102679.44;4850484;29;20048;-81
2022/05/09 10:04:56;;;;;;;11.13;4.30;;;;;;;18.15;67.97;102684.78;4860711;29;20203;-81
2022/05/09 10:07:33;;;;;;;11.10;4.95;;;;;;;18.18;67.08;102674.09;4838604;29;20056;-80
2022/05/09 10:10:19;;;;;;;10.75;4.55;;;;;;;18.20;66.94;102677.66;4862878;29;20097;-81
2022/05/09 10:12:52;;;;;;;9.05;4.35;;;;;;;18.27;66.24;102673.22;4859201;29;20057;-80
2022/05/09 10:15:23;;;;;;;11.40;5.28;;;;;;;18.37;66.13;102672.31;4864774;29;20049;-81
2022/05/09 10:17:52;;;;;;;10.15;5.20;;;;;;;18.43;65.68;102674.09;4860390;29;20079;-81
2022/05/09 10:20:52;;;;;;;10.73;5.25;;;;;;;18.46;64.62;102672.31;4863144;29;20053;-82
2022/05/09 10:26:30;;;;;;;13.00;4.72;;;;;;;18.64;64.29;102660.75;4875524;29;20370;-81
2022/05/09 10:29:04;;;;;;;11.77;5.80;;;;;;;18.70;63.85;102655.38;4883487;29;20392;-81
2022/05/09 10:31:52;;;;;;;11.40;4.75;;;;;;;18.77;64.16;102655.34;4863205;29;20052;-80
2022/05/09 10:34:40;;;;;;;7.57;4.30;;;;;;;18.84;62.98;102654.50;4863677;29;20415;-81
2022/05/09 10:37:13;;;;;;;13.05;4.70;;;;;;;18.88;63.09;102637.56;4861978;29;20052;-80
2022/05/09 10:39:55;;;;;;;12.07;4.78;;;;;;;18.93;63.38;102634.88;4867471;29;20053;-81
2022/05/09 10:42:39;;;;;;;12.32;4.63;;;;;;;19.01;62.22;102631.28;4863743;29;20053;-80
2022/05/09 10:45:16;;;;;;;10.70;4.32;;;;;;;19.08;62.88;102624.16;4875347;29;20062;-81
2022/05/09 10:48:02;;;;;;;8.90;4.00;;;;;;;19.17;62.57;102624.09;4861846;29;20756;-80
2022/05/09 10:50:38;;;;;;;11.68;4.45;;;;;;;19.30;62.34;102616.94;4878477;29;20049;-81
2022/05/09 10:53:14;;;;;;;10.35;4.65;;;;;;;19.38;61.05;102620.44;4842545;29;20060;-83
2022/05/09 10:55:45;;;;;;;12.55;4.13;;;;;;;19.41;61.12;102623.09;4880436;29;20041;-81
2022/05/09 10:58:22;;;;;;;11.88;4.57;;;;;;;19.47;60.07;102617.72;4846671;29;20382;-81
2022/05/09 11:01:19;;;;;;;8.93;3.83;;;;;;;19.54;59.02;102612.31;4880321;29;20060;-81
2022/05/09 11:03:47;;;;;;;11.98;4.18;;;;;;;19.58;59.16;102604.25;4866044;29;20397;-81
2022/05/09 11:06:49;;;;;;;11.27;4.60;;;;;;;19.59;58.15;102599.81;4853939;29;20053;-80
2022/05/09 11:09:45;;;;;;;10.20;4.03;;;;;;;19.62;58.49;102600.69;4832431;29;20751;-81
2022/05/09 11:12:32;;;;;;;7.60;3.53;;;;;;;19.76;58.98;102597.06;4859204;29;20534;-80
2022/05/09 11:15:14;;;;;;;14.63;3.00;;;;;;;19.91;55.76;102590.72;4869550;29;20045;-80
2022/05/09 11:18:19;;;;;;;6.65;3.28;;;;;;;19.98;53.03;102601.34;4864317;29;20059;-80
2022/05/09 11:21:19;;;;;;;6.95;2.30;;;;;;;20.11;51.34;102586.06;4849356;29;20068;-80
2022/05/09 11:23:59;;;;;;;11.37;3.10;;;;;;;20.21;52.43;102582.41;4862371;29;20060;-81
2022/05/09 11:26:53;;;;;;;5.88;2.60;;;;;;;20.35;52.07;102578.69;4817385;29;20053;-80
2022/05/09 11:29:27;;;;;;;9.02;3.00;;;;;;;20.43;51.19;102571.47;4893295;29;20057;-80
2022/05/09 11:32:23;;;;;;;9.98;2.95;;;;;;;20.53;50.31;102562.44;4864129;29;20052;-81
2022/05/09 11:35:11;;;;;;;8.02;3.22;;;;;;;20.66;50.87;102554.28;4839426;29;20060;-80
2022/05/09 11:38:07;;;;;;;4.55;2.25;;;;;;;20.80;49.77;102555.03;4857908;29;20423;-81
2022/05/09 11:40:39;;;;;;;6.18;2.53;;;;;;;20.89;50.42;102548.63;4843631;29;20065;-80
2022/05/09 11:43:37;;;;;;;6.15;2.50;;;;;;;21.00;50.97;102542.25;4872188;29;20069;-80
2022/05/09 11:46:40;;;;;;;10.15;3.10;;;;;;;21.10;49.07;102539.47;4874914;29;20051;-81
2022/05/09 11:49:16;;;;;;;9.63;3.05;;;;;;;21.19;48.36;102532.16;4871887;29;20088;-82
2022/05/09 11:51:58;;;;;;;8.07;2.60;;;;;;;21.15;48.58;102535.81;4851271;29;20048;-80
2022/05/09 11:54:32;;;;;;;9.23;3.25;;;;;;;21.21;48.14;102534.81;4834948;29;20067;-82
2022/05/09 11:57:10;;;;;;;11.15;2.85;;;;;;;21.22;47.40;102532.09;4848665;29;20408;-80
2022/05/09 11:59:52;;;;;;;11.25;3.10;;;;;;;21.19;45.95;102524.13;4858409;29;20048;-80
2022/05/09 12:02:43;;;;;;;8.10;2.75;;;;;;;21.26;45.91;102510.63;4862099;29;20053;-81